Bear Butte, South Dakota
Current Conditions -  °F | °C
As of 6:58 AM on Sunday 23 Nov 2014 (Local Time) from KRCA Reporting Station
Clear Clear  
Wind Chill: 25°   Ceiling: Unl
Heat Index: 37°   Visibility: 10mi
Dew Point: 19°   Wind: 23mph
Humidity: 49%   Direction: 330°NNW
Pressure: 29.65"   Gusts: 30mph
Location:  44.4145°N, 103.17°W
Report Text: KRCA 231358Z AUTO 33020G26KT 10SM CLR 03/M07 A2965 RMK AO2 PK WND 32030/27 SLP059 T00251074 $
Loading
Personal Weather Stations






























Interactive Weather Map New forecast layout! Learn more

10-Day Weather Forecast

Advertisements
Track Severe Weather on mobile